Time;durP1;ratioP1;P1;durP2;ratioP2;P2;SDS_P1;SDS_P2;PMS_P1;PMS_P2;Temp;Humidity;BMP_temperature;BMP_pressure;BME280_temperature;BME280_humidity;BME280_pressure;Samples;Min_cycle;Max_cycle;Signal;HPM_P1;HPM_P2
2021/11/29 00:01:51;;;;;;;18.00;11.63;;;;;;;4.60;59.63;99005.75;5034278;28;20025;-56
2021/11/29 00:04:17;;;;;;;19.40;12.70;;;;;;;4.51;59.69;99016.13;5034372;28;20049;-56
2021/11/29 00:06:42;;;;;;;20.67;13.27;;;;;;;4.44;60.13;99018.34;5033953;28;20029;-58
2021/11/29 00:09:08;;;;;;;19.25;12.57;;;;;;;4.30;59.87;98968.94;5033951;28;20032;-55
2021/11/29 00:11:34;;;;;;;20.92;13.30;;;;;;;4.52;59.92;98999.28;5033970;28;20120;-55
2021/11/29 00:14:00;;;;;;;19.70;13.45;;;;;;;4.49;59.87;99010.09;5033884;28;20025;-57
2021/11/29 00:16:26;;;;;;;20.98;13.43;;;;;;;4.49;60.15;98999.50;5033693;28;20029;-55
2021/11/29 00:18:51;;;;;;;22.20;14.65;;;;;;;4.48;60.14;98997.78;5033477;28;20029;-54
2021/11/29 00:21:17;;;;;;;23.52;13.63;;;;;;;4.51;60.33;98984.31;5034004;28;20457;-53
2021/11/29 00:23:45;;;;;;;20.95;13.52;;;;;;;4.59;60.51;98989.97;5033935;28;20029;-56
2021/11/29 00:26:13;;;;;;;23.38;14.35;;;;;;;4.67;59.70;98987.63;5033892;28;20045;-56
2021/11/29 00:28:39;;;;;;;22.35;13.02;;;;;;;4.66;59.46;98975.31;5032167;28;20037;-54
2021/11/29 00:31:04;;;;;;;18.90;13.13;;;;;;;4.55;60.19;98975.19;5034067;28;20042;-54
2021/11/29 00:33:30;;;;;;;21.88;13.52;;;;;;;4.56;60.09;98984.84;5033697;28;20049;-53
2021/11/29 00:35:56;;;;;;;21.17;12.82;;;;;;;4.58;60.46;98972.34;5033302;28;20108;-56
2021/11/29 00:38:21;;;;;;;20.38;12.95;;;;;;;4.58;60.33;98975.84;5033129;28;20080;-55
2021/11/29 00:40:47;;;;;;;20.20;12.85;;;;;;;4.71;59.27;98962.56;5033804;28;20033;-54
2021/11/29 00:43:13;;;;;;;20.45;13.32;;;;;;;4.59;59.72;98974.88;5033884;28;20478;-56
2021/11/29 00:45:38;;;;;;;21.27;13.48;;;;;;;4.58;59.86;98969.69;5031704;28;20039;-53
2021/11/29 00:48:04;;;;;;;22.17;13.55;;;;;;;4.57;59.93;98971.50;5033089;28;20077;-52
2021/11/29 00:50:30;;;;;;;24.17;14.10;;;;;;;4.59;59.71;98979.38;5033423;28;20032;-58
2021/11/29 00:52:56;;;;;;;22.80;13.70;;;;;;;4.55;60.01;98978.72;5032103;28;20075;-55
2021/11/29 00:55:23;;;;;;;23.95;14.88;;;;;;;4.55;60.28;98972.56;5032939;28;20068;-54
2021/11/29 00:57:49;;;;;;;20.92;13.35;;;;;;;4.37;60.18;98930.50;5032827;28;20512;-55
2021/11/29 01:00:20;;;;;;;23.52;14.75;;;;;;;4.67;59.83;98945.19;5032302;28;20026;-54
2021/11/29 01:02:46;;;;;;;22.17;14.55;;;;;;;4.68;60.08;98968.09;5033386;28;20033;-55
2021/11/29 01:05:12;;;;;;;23.42;14.10;;;;;;;4.65;60.72;98967.47;5033196;28;20037;-54
2021/11/29 01:07:39;;;;;;;22.38;14.52;;;;;;;4.68;60.55;98962.81;5033028;28;20033;-53
2021/11/29 01:10:08;;;;;;;22.17;14.50;;;;;;;4.69;59.73;98969.78;5032766;28;20060;-55
2021/11/29 01:12:34;;;;;;;25.42;14.57;;;;;;;4.57;60.69;98965.34;5031433;28;20121;-57
2021/11/29 01:15:00;;;;;;;24.13;15.40;;;;;;;4.45;61.19;98957.28;5032850;28;20432;-55
2021/11/29 01:17:26;;;;;;;21.10;14.55;;;;;;;4.52;60.66;98948.91;5032704;28;20052;-56
2021/11/29 01:19:52;;;;;;;22.95;13.55;;;;;;;4.49;61.10;98943.81;5032839;28;20034;-57
2021/11/29 01:22:18;;;;;;;25.55;14.15;;;;;;;4.55;61.13;98924.84;5032523;28;20029;-53
2021/11/29 01:24:43;;;;;;;21.10;13.43;;;;;;;4.46;61.06;98921.03;5032761;28;20469;-53
2021/11/29 01:27:09;;;;;;;25.23;13.75;;;;;;;4.44;61.37;98905.25;5032667;28;20079;-55
2021/11/29 01:29:35;;;;;;;20.20;13.90;;;;;;;4.29;61.68;98885.09;5032263;28;20049;-52
2021/11/29 01:32:02;;;;;;;22.55;14.35;;;;;;;4.27;61.36;98864.03;5032385;28;20041;-56
2021/11/29 01:34:28;;;;;;;21.67;14.60;;;;;;;4.53;61.74;98910.84;5032550;28;20044;-56
2021/11/29 01:36:53;;;;;;;23.17;15.20;;;;;;;4.56;61.36;98906.19;5032166;28;20385;-57
2021/11/29 01:39:19;;;;;;;26.70;14.82;;;;;;;4.50;61.30;98901.31;5032258;28;20025;-54
2021/11/29 01:41:46;;;;;;;23.75;15.18;;;;;;;4.57;61.94;98910.53;5032756;28;20387;-54
2021/11/29 01:44:12;;;;;;;22.52;14.70;;;;;;;4.57;61.22;98901.72;5031842;28;20507;-56
2021/11/29 01:46:38;;;;;;;21.02;13.93;;;;;;;4.56;61.87;98895.56;5032252;28;20252;-57
2021/11/29 01:49:05;;;;;;;24.30;14.57;;;;;;;4.67;61.71;98896.59;5032433;28;20033;-58
2021/11/29 01:51:31;;;;;;;25.63;15.35;;;;;;;4.68;61.82;98890.34;5032291;28;20066;-55
2021/11/29 01:53:56;;;;;;;23.83;14.70;;;;;;;4.70;61.75;98884.00;5031801;28;20060;-57
2021/11/29 01:56:22;;;;;;;22.88;13.55;;;;;;;4.81;61.65;98895.63;5031895;28;20048;-57
2021/11/29 01:58:47;;;;;;;24.88;14.85;;;;;;;4.76;61.92;98889.81;5032768;28;20083;-55
2021/11/29 02:01:18;;;;;;;25.88;16.05;;;;;;;4.72;62.48;98883.88;5031755;28;20029;-56
2021/11/29 02:03:47;;;;;;;27.00;15.82;;;;;;;4.55;62.70;98882.41;5031344;28;20116;-55
2021/11/29 02:06:13;;;;;;;25.90;16.45;;;;;;;4.51;63.38;98886.25;5030663;28;20041;-56
2021/11/29 02:08:39;;;;;;;27.15;16.92;;;;;;;4.42;63.80;98878.00;5031926;28;20029;-54
2021/11/29 02:11:05;;;;;;;29.30;17.27;;;;;;;4.28;63.29;98833.06;5031676;28;20454;-56
2021/11/29 02:13:31;;;;;;;27.80;16.33;;;;;;;4.43;63.92;98866.44;5031485;28;20037;-56
2021/11/29 02:15:57;;;;;;;29.02;16.80;;;;;;;4.47;64.51;98868.88;5031948;28;20481;-55
2021/11/29 02:18:28;;;;;;;27.58;16.70;;;;;;;4.53;64.35;98881.69;5031907;28;20116;-52
2021/11/29 02:21:18;;;;;;;34.25;18.40;;;;;;;4.62;64.38;98883.69;5031583;28;20033;-53
2021/11/29 02:23:50;;;;;;;32.50;18.65;;;;;;;4.57;65.08;98881.38;5031176;28;20033;-50
2021/11/29 02:26:18;;;;;;;31.85;18.35;;;;;;;4.54;65.14;98864.81;5031806;28;20037;-51
2021/11/29 02:28:47;;;;;;;36.50;20.27;;;;;;;4.57;65.26;98859.28;5031427;28;20025;-55
2021/11/29 02:31:17;;;;;;;38.83;20.33;;;;;;;4.65;65.16;98872.88;5030911;28;20448;-58
2021/11/29 02:33:42;;;;;;;36.92;19.83;;;;;;;4.57;65.64;98864.59;5031061;28;20493;-55
2021/11/29 02:36:08;;;;;;;41.10;20.65;;;;;;;4.24;66.45;98821.84;5031344;28;20072;-55
2021/11/29 02:38:35;;;;;;;38.92;20.23;;;;;;;4.51;66.40;98859.75;5031374;28;20021;-55
2021/11/29 02:41:01;;;;;;;37.55;21.20;;;;;;;4.47;66.53;98853.84;5030947;28;20033;-55
2021/11/29 02:43:27;;;;;;;46.90;21.40;;;;;;;4.50;66.52;98848.31;5030812;28;20683;-53
2021/11/29 02:45:53;;;;;;;43.75;23.02;;;;;;;4.43;67.21;98845.25;5031400;28;20076;-57
2021/11/29 02:48:18;;;;;;;44.00;23.52;;;;;;;4.39;67.54;98846.41;5031585;28;20061;-55
2021/11/29 02:50:44;;;;;;;41.42;23.02;;;;;;;4.26;67.75;98849.09;5030786;28;20052;-51
2021/11/29 02:53:14;;;;;;;41.70;21.45;;;;;;;4.29;67.90;98855.94;5030723;28;20060;-56
2021/11/29 02:55:40;;;;;;;45.13;23.02;;;;;;;4.24;68.42;98850.13;5031336;28;20036;-54
2021/11/29 02:58:06;;;;;;;46.80;23.30;;;;;;;4.23;69.06;98851.97;5031038;28;20021;-56
2021/11/29 03:00:33;;;;;;;43.45;23.38;;;;;;;4.26;67.84;98841.13;5030875;28;20030;-57
2021/11/29 03:03:10;;;;;;;40.95;21.63;;;;;;;4.43;68.10;98841.72;5029720;28;20038;-53
2021/11/29 03:05:36;;;;;;;48.67;24.45;;;;;;;4.29;68.48;98843.56;5030908;28;20473;-57
2021/11/29 03:08:04;;;;;;;41.97;22.75;;;;;;;4.27;69.17;98837.53;5030667;28;20088;-57
2021/11/29 03:10:31;;;;;;;40.22;21.30;;;;;;;4.26;68.30;98834.97;5030670;28;20061;-54
2021/11/29 03:12:57;;;;;;;46.42;23.63;;;;;;;4.23;68.74;98836.06;5030576;28;20489;-57
2021/11/29 03:15:23;;;;;;;43.20;23.02;;;;;;;4.20;69.35;98833.59;5030061;28;20037;-53
2021/11/29 03:17:49;;;;;;;47.15;24.48;;;;;;;4.20;68.74;98836.25;5033923;28;20021;-58
2021/11/29 03:20:14;;;;;;;44.00;22.85;;;;;;;4.15;69.77;98833.94;5033383;28;20036;-56
2021/11/29 03:22:40;;;;;;;43.42;21.55;;;;;;;4.18;69.77;98827.56;5034626;28;20083;-58
2021/11/29 03:25:08;;;;;;;44.85;23.48;;;;;;;4.14;70.35;98853.44;5033372;28;20055;-58
2021/11/29 03:27:33;;;;;;;39.92;20.30;;;;;;;4.21;69.47;98827.34;5034622;28;20029;-57
2021/11/29 03:29:59;;;;;;;43.58;23.13;;;;;;;4.15;70.69;98841.03;5034594;28;20595;-56
2021/11/29 03:32:25;;;;;;;43.00;21.98;;;;;;;4.12;70.87;98831.50;5034691;28;20401;-57
2021/11/29 03:34:50;;;;;;;42.83;23.05;;;;;;;4.11;70.52;98832.47;5034716;28;20064;-56
2021/11/29 03:37:18;;;;;;;44.67;24.13;;;;;;;4.15;70.42;98826.00;5034662;28;20064;-53
2021/11/29 03:39:44;;;;;;;45.45;21.85;;;;;;;4.17;69.93;98820.56;5033899;28;20025;-55
2021/11/29 03:42:10;;;;;;;47.50;23.45;;;;;;;4.11;70.83;98827.16;5055109;28;20154;-58
2021/11/29 03:44:37;;;;;;;43.95;23.45;;;;;;;4.06;71.56;98823.97;5062677;28;20111;-56
2021/11/29 03:47:04;;;;;;;38.60;21.90;;;;;;;4.09;70.83;98817.63;5051698;28;20037;-55
2021/11/29 03:49:30;;;;;;;39.03;22.70;;;;;;;4.11;70.83;98808.63;5053917;28;20037;-54
2021/11/29 03:51:56;;;;;;;45.90;24.65;;;;;;;4.09;70.96;98801.72;5054479;28;20048;-54
2021/11/29 03:54:22;;;;;;;44.72;23.00;;;;;;;4.02;71.50;98801.31;5054709;28;20128;-54
2021/11/29 03:56:47;;;;;;;42.45;23.45;;;;;;;4.07;71.58;98809.78;5057177;28;20426;-54
2021/11/29 03:59:13;;;;;;;42.90;23.98;;;;;;;4.06;72.40;98809.91;5072017;28;20461;-55
2021/11/29 04:01:39;;;;;;;41.95;23.20;;;;;;;4.01;72.08;98807.56;5073660;28;20119;-55
2021/11/29 04:04:05;;;;;;;39.85;22.48;;;;;;;3.94;72.57;98782.47;5073949;28;20399;-54
2021/11/29 04:06:31;;;;;;;38.88;22.27;;;;;;;4.07;72.92;98799.16;5073708;28;20029;-55
2021/11/29 04:08:57;;;;;;;43.22;22.52;;;;;;;4.08;73.29;98800.03;5073678;28;20028;-57
2021/11/29 04:11:23;;;;;;;42.60;22.35;;;;;;;4.21;72.11;98792.06;5074216;28;20036;-54
2021/11/29 04:13:49;;;;;;;43.00;22.17;;;;;;;4.13;72.27;98792.59;5073900;28;20074;-56
2021/11/29 04:16:17;;;;;;;43.13;22.13;;;;;;;4.16;72.25;98798.53;5073383;28;20036;-57
2021/11/29 04:18:44;;;;;;;43.22;22.60;;;;;;;4.22;72.42;98794.63;5073597;28;20031;-57
2021/11/29 04:21:11;;;;;;;44.45;22.58;;;;;;;4.23;72.22;98798.09;5073540;28;20101;-59
2021/11/29 04:23:37;;;;;;;38.63;21.92;;;;;;;4.21;73.01;98794.72;5073468;28;20530;-54
2021/11/29 04:26:04;;;;;;;38.63;21.48;;;;;;;4.18;73.73;98797.59;5073120;28;20040;-56
2021/11/29 04:28:30;;;;;;;41.45;21.98;;;;;;;4.26;72.94;98798.75;5072561;28;20087;-56
2021/11/29 04:30:56;;;;;;;43.80;22.55;;;;;;;4.32;72.94;98792.13;5073502;28;20459;-58
2021/11/29 04:33:23;;;;;;;38.00;20.30;;;;;;;4.35;72.88;98791.94;5073482;28;20128;-56
2021/11/29 04:35:48;;;;;;;38.47;20.35;;;;;;;4.37;72.52;98792.69;5073149;28;20056;-55
2021/11/29 04:38:14;;;;;;;39.92;21.25;;;;;;;4.32;73.31;98781.53;5073134;28;20029;-56
2021/11/29 04:40:42;;;;;;;40.88;21.88;;;;;;;4.33;73.19;98775.28;5073466;28;20033;-57
2021/11/29 04:43:08;;;;;;;38.33;20.58;;;;;;;4.38;73.58;98777.59;5073052;28;20548;-55
2021/11/29 04:45:34;;;;;;;39.80;21.30;;;;;;;4.21;73.71;98741.72;5073121;28;20112;-57
2021/11/29 04:47:59;;;;;;;36.95;20.05;;;;;;;4.42;73.66;98772.00;5072961;28;20427;-52
2021/11/29 04:50:26;;;;;;;41.92;20.73;;;;;;;4.37;73.71;98765.31;5072291;28;20041;-56
2021/11/29 04:52:52;;;;;;;38.35;20.10;;;;;;;4.43;73.86;98768.38;5073088;28;20143;-54
2021/11/29 04:55:18;;;;;;;35.58;19.55;;;;;;;4.47;73.59;98768.16;5072925;28;20036;-56
2021/11/29 04:57:44;;;;;;;41.25;20.10;;;;;;;4.51;73.00;98769.63;5072707;28;20029;-57
2021/11/29 05:00:12;;;;;;;34.05;19.52;;;;;;;4.53;73.58;98784.47;5072768;28;20037;-57
2021/11/29 05:02:38;;;;;;;37.67;20.48;;;;;;;4.57;72.91;98782.41;5072539;28;20039;-56
2021/11/29 05:05:04;;;;;;;36.20;19.67;;;;;;;4.51;73.23;98764.31;5072411;28;20117;-52
2021/11/29 05:07:30;;;;;;;37.92;21.00;;;;;;;4.58;72.84;98770.84;5072489;28;20492;-56
2021/11/29 05:09:56;;;;;;;36.65;19.85;;;;;;;4.54;74.22;98766.75;5073216;28;20054;-55
2021/11/29 05:12:22;;;;;;;36.35;19.67;;;;;;;4.56;74.01;98765.69;5072223;28;20077;-58
2021/11/29 05:14:49;;;;;;;34.72;17.08;;;;;;;4.69;73.25;98767.41;5072453;28;20420;-59
2021/11/29 05:17:16;;;;;;;39.45;20.40;;;;;;;4.68;73.33;98761.28;5072631;28;20047;-55
2021/11/29 05:19:42;;;;;;;34.55;18.60;;;;;;;4.71;72.45;98768.19;5072052;28;20039;-57
2021/11/29 05:22:08;;;;;;;41.10;19.27;;;;;;;4.57;72.26;98742.66;5072075;28;20453;-57
2021/11/29 05:24:34;;;;;;;38.28;19.98;;;;;;;4.31;73.57;98709.16;5068814;28;20059;-56
2021/11/29 05:27:00;;;;;;;40.00;19.67;;;;;;;4.31;73.49;98710.94;5049806;28;20454;-56
2021/11/29 05:29:26;;;;;;;39.05;19.83;;;;;;;4.47;73.84;98733.69;5050167;28;20072;-54
2021/11/29 05:31:52;;;;;;;38.60;19.77;;;;;;;4.55;74.22;98756.03;5050298;28;20102;-59
2021/11/29 05:34:18;;;;;;;40.55;20.73;;;;;;;4.56;73.94;98730.34;5052122;28;20033;-55
2021/11/29 05:36:45;;;;;;;38.22;19.95;;;;;;;4.60;74.33;98739.81;5018133;28;20021;-57
2021/11/29 05:39:14;;;;;;;42.40;19.92;;;;;;;4.66;73.87;98747.28;5051715;28;20037;-54
2021/11/29 05:41:40;;;;;;;41.55;19.98;;;;;;;4.77;73.33;98735.03;5052136;28;20104;-57
2021/11/29 05:44:05;;;;;;;34.88;18.02;;;;;;;4.76;73.68;98728.03;5051638;28;20086;-59
2021/11/29 05:46:31;;;;;;;43.80;21.08;;;;;;;4.81;73.34;98750.63;5052156;28;20037;-57
2021/11/29 05:48:57;;;;;;;35.67;18.70;;;;;;;4.80;73.48;98738.31;5052133;28;20040;-56
2021/11/29 05:51:24;;;;;;;44.33;20.08;;;;;;;4.76;73.41;98733.34;5051946;28;20029;-57
2021/11/29 05:53:50;;;;;;;40.30;19.63;;;;;;;4.73;73.86;98735.28;5051461;28;20036;-57
2021/11/29 05:56:16;;;;;;;41.03;19.10;;;;;;;4.71;74.14;98736.38;5051878;28;20044;-57
2021/11/29 05:58:42;;;;;;;40.25;18.50;;;;;;;4.84;73.83;98729.16;5052293;28;20032;-58
2021/11/29 06:01:08;;;;;;;40.25;19.17;;;;;;;4.88;73.66;98735.09;5051657;28;20044;-55
2021/11/29 06:03:34;;;;;;;44.13;20.40;;;;;;;4.84;74.27;98723.03;5051512;28;20047;-53
2021/11/29 06:05:59;;;;;;;41.53;19.90;;;;;;;4.99;72.61;98715.72;5051881;28;20021;-56
2021/11/29 06:08:25;;;;;;;47.33;21.60;;;;;;;4.88;73.76;98713.88;5051985;28;20063;-55
2021/11/29 06:10:50;;;;;;;42.10;20.30;;;;;;;4.82;73.72;98696.63;5051460;28;20028;-56
2021/11/29 06:13:17;;;;;;;43.40;20.20;;;;;;;4.86;74.08;98706.03;5051379;28;20047;-55
2021/11/29 06:15:44;;;;;;;45.13;21.13;;;;;;;4.87;73.92;98704.25;5051502;28;20033;-54
2021/11/29 06:18:10;;;;;;;47.70;21.50;;;;;;;4.89;73.84;98694.34;5051790;28;20029;-54
2021/11/29 06:20:36;;;;;;;44.80;19.42;;;;;;;4.88;74.17;98703.28;5042932;28;20100;-52
2021/11/29 06:23:03;;;;;;;42.30;20.92;;;;;;;4.97;74.15;98696.44;5041043;28;20040;-56
2021/11/29 06:25:29;;;;;;;40.33;19.88;;;;;;;4.94;73.75;98686.03;5039084;28;20051;-53
2021/11/29 06:27:55;;;;;;;44.17;19.92;;;;;;;5.00;74.30;98707.63;5040173;28;20063;-52
2021/11/29 06:30:21;;;;;;;40.40;21.58;;;;;;;5.12;73.22;98697.06;5040731;28;20053;-58
2021/11/29 06:32:49;;;;;;;39.88;20.33;;;;;;;4.97;73.62;98677.88;5037326;28;20052;-54
2021/11/29 06:35:15;;;;;;;43.47;19.75;;;;;;;5.03;74.13;98680.03;5039839;28;20044;-55
2021/11/29 06:37:45;;;;;;;43.47;20.48;;;;;;;5.15;73.68;98683.56;5039465;28;20139;-56
2021/11/29 06:40:11;;;;;;;41.28;18.58;;;;;;;5.08;73.89;98677.88;5034377;28;20478;-57
2021/11/29 06:42:37;;;;;;;38.75;19.35;;;;;;;4.98;73.91;98661.81;5040073;28;20052;-57
2021/11/29 06:45:03;;;;;;;39.97;19.88;;;;;;;5.14;73.90;98681.88;5044072;28;20033;-55
2021/11/29 06:47:29;;;;;;;41.70;19.77;;;;;;;5.22;73.47;98681.31;5044407;28;20053;-56
2021/11/29 06:49:55;;;;;;;45.40;20.27;;;;;;;5.19;73.92;98678.88;5041878;28;20048;-58
2021/11/29 06:52:20;;;;;;;35.97;19.08;;;;;;;5.24;73.56;98682.84;5051034;28;20029;-58
2021/11/29 06:54:50;;;;;;;39.75;18.33;;;;;;;5.26;73.25;98670.31;5033261;28;20040;-59
2021/11/29 06:57:16;;;;;;;40.40;19.27;;;;;;;5.27;73.88;98677.31;5050679;28;20064;-57
2021/11/29 06:59:42;;;;;;;41.17;19.33;;;;;;;5.32;73.88;98669.00;5050846;28;20436;-58
2021/11/29 07:02:08;;;;;;;39.83;17.65;;;;;;;5.49;72.99;98675.63;5050712;28;20056;-58
2021/11/29 07:04:34;;;;;;;39.80;19.33;;;;;;;5.41;73.11;98655.00;5050660;28;20033;-58
2021/11/29 07:06:59;;;;;;;42.13;20.88;;;;;;;5.44;73.57;98670.72;5049216;28;20456;-60
2021/11/29 07:09:25;;;;;;;44.17;20.17;;;;;;;5.50;73.18;98656.09;5050425;28;20036;-60
2021/11/29 07:11:51;;;;;;;44.60;20.33;;;;;;;5.54;72.49;98652.22;5050789;28;20033;-56
2021/11/29 07:14:17;;;;;;;39.58;18.98;;;;;;;5.62;72.40;98643.66;5050398;28;20021;-58
2021/11/29 07:16:47;;;;;;;47.53;19.85;;;;;;;5.57;73.10;98645.84;5050763;28;20481;-58
2021/11/29 07:19:17;;;;;;;42.08;20.00;;;;;;;5.53;73.87;98655.84;5050665;28;20040;-55
2021/11/29 07:21:44;;;;;;;50.78;22.40;;;;;;;5.59;73.02;98627.97;5049046;28;20040;-57
2021/11/29 07:24:09;;;;;;;41.55;20.10;;;;;;;5.66;72.78;98637.13;5049039;28;20045;-60
2021/11/29 07:26:37;;;;;;;37.53;19.13;;;;;;;5.78;73.10;98651.25;5051001;28;20036;-58
2021/11/29 07:29:03;;;;;;;38.78;19.83;;;;;;;5.73;72.84;98635.69;5050831;28;20036;-60
2021/11/29 07:31:28;;;;;;;39.30;20.40;;;;;;;5.69;73.00;98626.28;5049301;28;20138;-57
2021/11/29 07:33:54;;;;;;;32.40;16.00;;;;;;;5.88;72.99;98624.78;5050819;28;20131;-57
2021/11/29 07:36:20;;;;;;;39.28;20.08;;;;;;;5.91;72.35;98623.72;5050929;28;20388;-56
2021/11/29 07:38:45;;;;;;;40.15;19.77;;;;;;;5.87;72.62;98626.63;5050690;28;20178;-60
2021/11/29 07:41:11;;;;;;;45.28;20.52;;;;;;;5.91;72.39;98621.06;5050525;28;20033;-59
2021/11/29 07:43:37;;;;;;;46.83;21.40;;;;;;;5.83;72.77;98614.56;5050801;28;20533;-60
2021/11/29 07:46:03;;;;;;;37.08;19.67;;;;;;;5.86;72.73;98603.69;5049945;28;20362;-59
2021/11/29 07:48:28;;;;;;;39.13;19.45;;;;;;;5.83;73.31;98609.25;5050452;28;20075;-56
2021/11/29 07:50:54;;;;;;;42.30;20.80;;;;;;;5.84;72.69;98605.63;5050221;28;20163;-57
2021/11/29 07:53:20;;;;;;;40.38;19.80;;;;;;;5.99;72.19;98621.28;5049753;28;20489;-59
2021/11/29 07:55:46;;;;;;;40.75;19.65;;;;;;;5.95;72.25;98607.41;5050468;28;20033;-60
2021/11/29 07:58:12;;;;;;;41.38;19.95;;;;;;;5.86;72.86;98598.38;5032007;28;20091;-58
2021/11/29 08:00:38;;;;;;;37.70;20.23;;;;;;;5.83;73.16;98593.31;5050461;28;20028;-59
2021/11/29 08:03:06;;;;;;;42.05;20.10;;;;;;;5.89;73.37;98595.47;5052859;28;20465;-52
2021/11/29 08:05:33;;;;;;;46.63;19.40;;;;;;;5.97;72.41;98583.34;5053881;28;20108;-55
2021/11/29 08:08:03;;;;;;;45.28;21.33;;;;;;;6.04;72.42;98589.91;5053938;28;20251;-52
2021/11/29 08:10:29;;;;;;;39.65;19.80;;;;;;;5.92;72.63;98569.63;5053645;28;20122;-57
2021/11/29 08:12:55;;;;;;;37.17;19.50;;;;;;;5.98;72.63;98572.63;5054088;28;20029;-56
2021/11/29 08:15:21;;;;;;;44.55;20.70;;;;;;;6.12;72.23;98587.47;5053610;28;20039;-53
2021/11/29 08:17:48;;;;;;;40.05;19.75;;;;;;;5.78;72.81;98529.06;5053611;28;20075;-53
2021/11/29 08:20:15;;;;;;;39.90;19.80;;;;;;;6.01;72.65;98566.22;5052424;28;20025;-56
2021/11/29 08:22:41;;;;;;;39.72;19.10;;;;;;;6.06;72.89;98548.13;5052838;28;20021;-57
2021/11/29 08:25:07;;;;;;;41.67;20.75;;;;;;;6.18;72.27;98544.41;5054168;28;20032;-58
2021/11/29 08:27:34;;;;;;;41.70;20.25;;;;;;;6.23;71.78;98540.53;5053691;28;20396;-59
2021/11/29 08:30:02;;;;;;;41.20;20.02;;;;;;;6.21;72.59;98535.38;5053494;28;20103;-58
2021/11/29 08:32:28;;;;;;;40.97;19.90;;;;;;;6.34;71.56;98537.84;5053816;28;20079;-56
2021/11/29 08:34:54;;;;;;;42.83;21.65;;;;;;;6.31;71.44;98519.50;5052756;28;20069;-55
2021/11/29 08:37:19;;;;;;;43.38;21.38;;;;;;;6.25;72.27;98517.31;5053402;28;20025;-56
2021/11/29 08:39:45;;;;;;;46.42;21.15;;;;;;;6.34;71.72;98519.22;5053300;28;20068;-55
2021/11/29 08:42:11;;;;;;;46.95;21.98;;;;;;;6.37;71.16;98510.13;5054170;28;20111;-60
2021/11/29 08:44:36;;;;;;;47.53;21.58;;;;;;;6.28;71.99;98519.75;5053600;28;20028;-54
2021/11/29 08:47:03;;;;;;;44.95;21.02;;;;;;;6.20;72.18;98492.97;5053213;28;20028;-58
2021/11/29 08:49:29;;;;;;;45.85;22.92;;;;;;;6.22;72.19;98491.88;5053389;28;20111;-58
2021/11/29 08:51:56;;;;;;;46.08;20.95;;;;;;;6.23;72.21;98503.31;5053333;28;20104;-58
2021/11/29 08:54:22;;;;;;;48.33;23.52;;;;;;;6.27;71.59;98502.94;5051298;28;20031;-65
2021/11/29 08:56:48;;;;;;;50.00;23.30;;;;;;;6.21;72.78;98499.94;5050150;28;20025;-56
2021/11/29 08:59:17;;;;;;;46.17;21.52;;;;;;;6.30;72.26;98493.88;5052503;28;20307;-68
2021/11/29 09:01:43;;;;;;;49.78;22.67;;;;;;;6.28;71.99;98483.38;5051493;28;20032;-61
2021/11/29 09:04:10;;;;;;;50.15;23.05;;;;;;;6.24;71.98;98473.13;5051447;28;20092;-50
2021/11/29 09:06:36;;;;;;;52.63;24.25;;;;;;;6.24;72.27;98468.66;5052744;28;20033;-55
2021/11/29 09:09:03;;;;;;;52.33;23.73;;;;;;;6.20;72.29;98471.69;5052699;28;20508;-53
2021/11/29 09:11:29;;;;;;;48.88;23.30;;;;;;;6.23;72.23;98456.34;5052547;28;20477;-61
2021/11/29 09:13:56;;;;;;;51.83;24.58;;;;;;;6.28;72.21;98469.25;5051132;28;20029;-52
2021/11/29 09:16:22;;;;;;;49.80;22.30;;;;;;;6.26;72.30;98465.84;5052725;28;20155;-54
2021/11/29 09:18:47;;;;;;;48.90;22.85;;;;;;;6.24;72.43;98465.13;5052162;28;20033;-52
2021/11/29 09:21:15;;;;;;;49.58;22.85;;;;;;;6.26;72.46;98476.47;5052254;28;20032;-51
2021/11/29 09:23:42;;;;;;;42.85;19.60;;;;;;;6.24;72.71;98462.47;5064408;28;20382;-52
2021/11/29 09:26:08;;;;;;;45.78;21.02;;;;;;;6.20;73.03;98455.75;5053334;28;20120;-55
2021/11/29 09:28:35;;;;;;;41.85;20.75;;;;;;;6.26;72.61;98465.84;5068076;28;20579;-53
2021/11/29 09:31:00;;;;;;;46.72;21.50;;;;;;;6.36;72.58;98449.97;5058656;28;20093;-54
2021/11/29 09:33:26;;;;;;;48.20;21.80;;;;;;;6.40;72.19;98441.59;5061736;28;20120;-56
2021/11/29 09:35:52;;;;;;;47.15;21.15;;;;;;;6.44;71.85;98440.38;5064825;28;20506;-53
2021/11/29 09:38:17;;;;;;;44.83;22.05;;;;;;;6.35;72.78;98443.81;5053823;28;20028;-53
2021/11/29 09:40:44;;;;;;;44.10;21.42;;;;;;;6.12;72.61;98393.47;5067150;28;20036;-54
2021/11/29 09:43:12;;;;;;;42.38;20.55;;;;;;;6.39;72.63;98431.94;5059078;28;20029;-56
2021/11/29 09:45:41;;;;;;;45.97;22.48;;;;;;;6.49;72.18;98428.47;5059868;28;20028;-55
2021/11/29 09:48:08;;;;;;;45.50;20.52;;;;;;;6.42;72.13;98428.19;5067560;28;20061;-55
2021/11/29 09:50:36;;;;;;;51.85;22.45;;;;;;;6.41;72.30;98422.03;5055215;28;20116;-54
2021/11/29 09:53:01;;;;;;;43.30;20.75;;;;;;;6.37;72.52;98419.75;5064782;28;20102;-55
2021/11/29 09:55:28;;;;;;;47.75;22.65;;;;;;;6.36;72.39;98418.91;5061285;28;20059;-54
2021/11/29 09:57:56;;;;;;;43.35;21.50;;;;;;;6.29;73.12;98407.97;5057953;28;20040;-56
2021/11/29 10:00:34;;;;;;;41.92;20.00;;;;;;;6.28;73.39;98400.16;5067818;28;20178;-54
2021/11/29 10:03:00;;;;;;;44.00;21.98;;;;;;;6.26;73.53;98407.38;5057852;28;20036;-55
2021/11/29 10:05:26;;;;;;;44.78;21.20;;;;;;;6.31;73.68;98400.69;5061270;28;20039;-55
2021/11/29 10:07:53;;;;;;;46.00;21.42;;;;;;;6.34;73.17;98393.44;5065183;28;20032;-57
2021/11/29 10:10:30;;;;;;;44.20;20.67;;;;;;;6.55;72.57;98401.38;5054707;28;20029;-54
2021/11/29 10:13:05;;;;;;;38.30;19.58;;;;;;;6.49;72.41;98402.75;5065025;28;20029;-53
2021/11/29 10:15:32;;;;;;;44.13;19.55;;;;;;;6.50;72.55;98403.56;5061558;28;20031;-58
2021/11/29 10:18:00;;;;;;;42.95;21.25;;;;;;;6.47;72.93;98386.91;5057389;28;20025;-58
2021/11/29 10:20:30;;;;;;;41.22;21.23;;;;;;;6.45;73.04;98388.88;5067772;28;20025;-54
2021/11/29 10:23:05;;;;;;;38.20;19.30;;;;;;;6.54;72.65;98383.75;5055674;28;20056;-58
2021/11/29 10:25:30;;;;;;;41.33;21.97;;;;;;;6.49;72.50;98385.94;5060138;28;20025;-55
2021/11/29 10:27:56;;;;;;;38.20;20.05;;;;;;;6.51;72.36;98382.19;5051012;28;20333;-53
2021/11/29 10:30:25;;;;;;;38.67;19.67;;;;;;;6.66;72.00;98392.47;5067614;28;20083;-54
2021/11/29 10:32:53;;;;;;;39.00;22.25;;;;;;;6.50;72.41;98369.00;5055879;28;20060;-52
2021/11/29 10:35:33;;;;;;;38.42;19.98;;;;;;;6.52;72.86;98377.72;5061520;28;20041;-57
2021/11/29 10:38:00;;;;;;;41.72;19.95;;;;;;;6.46;73.09;98385.25;5065466;28;20388;-55
2021/11/29 10:40:26;;;;;;;36.75;19.63;;;;;;;6.47;72.81;98373.63;5054056;28;20068;-54
2021/11/29 10:42:52;;;;;;;36.15;19.45;;;;;;;6.46;72.80;98361.31;5063533;28;20036;-57
2021/11/29 10:45:23;;;;;;;37.15;18.90;;;;;;;6.53;72.55;98358.13;5059800;28;20380;-52
2021/11/29 10:47:50;;;;;;;34.25;17.80;;;;;;;6.53;72.67;98339.53;5062540;28;20112;-55
2021/11/29 10:50:16;;;;;;;33.75;18.40;;;;;;;6.49;72.86;98351.38;5054083;28;20044;-55
2021/11/29 10:52:46;;;;;;;33.08;17.05;;;;;;;6.50;73.10;98351.25;5065525;28;20040;-54
2021/11/29 10:55:13;;;;;;;35.88;19.10;;;;;;;6.47;73.11;98341.72;5049018;28;20036;-56
2021/11/29 10:57:50;;;;;;;36.13;18.83;;;;;;;6.38;72.57;98305.31;5051481;28;20021;-55
2021/11/29 11:00:17;;;;;;;35.03;17.55;;;;;;;6.44;72.64;98315.41;5041012;28;20057;-55
2021/11/29 11:03:01;;;;;;;33.80;18.35;;;;;;;6.59;73.06;98333.66;5061821;28;20028;-58
2021/11/29 11:05:27;;;;;;;35.40;18.73;;;;;;;6.59;72.47;98325.69;5033562;28;20025;-56
2021/11/29 11:07:53;;;;;;;34.15;18.15;;;;;;;6.51;72.88;98315.72;5039694;28;20055;-58
2021/11/29 11:10:20;;;;;;;33.83;18.25;;;;;;;6.48;72.90;98308.00;5063428;28;20063;-51
2021/11/29 11:12:47;;;;;;;36.92;18.10;;;;;;;6.43;73.46;98311.06;5054041;28;20445;-56
2021/11/29 11:15:16;;;;;;;34.15;18.67;;;;;;;6.49;72.98;98308.84;5033508;28;20030;-55
2021/11/29 11:17:49;;;;;;;31.88;17.98;;;;;;;6.48;73.31;98313.34;5056895;28;20059;-56
2021/11/29 11:20:15;;;;;;;32.25;17.48;;;;;;;6.39;73.80;98291.06;5058373;28;20112;-55
2021/11/29 11:22:44;;;;;;;35.55;16.52;;;;;;;6.47;74.18;98288.53;5065595;28;20136;-58